To NAV CANADA Home Page Login to a new session Search on AWWS site Feedback and Comments Disclaimer Vers la page française équivalente Tips FAQ What's new on the site To the Forecasts and Observations / NOTAM section To "File a Flight Plan" website Publications and other links Update of the User's profile FIC Telephone Numbers My Weather Data Folder Route Weather Data Regional Weather Data Local Weather Data To the Forecasts and Observations / NOTAM section
Request Generated 03/30/2015 at 23:00:55 UTC . Weather information available at that time is displayed.

METAR/TAF

LA GRANDE-3/QC    

METAR CYAD 302000Z 33012KT 15SM FEW025 BKN090 M10/M15 A2952 RMK SC2AC2 LAST OBS/NEXT 311100UTC SLP014=

CYAD - No TAF is issued for this station

Your time UTC time
Weather data provided by Environment Canada and NAV CANADA